Aviation Digital Data Service (ADDS)

Output produced by METARs form (0836 UTC 18 September 2021)
found at http://www.aviationweather.gov/metar/data/
 
Forecast for: UTDD (DUSHANBE , TJ)
Text: TAF UTDD 180600Z 1807/1819 VRB02MPS 9999 NSC
Forecast period: 0700 to 1900 UTC 18 September 2021
Forecast type: FROM: standard forecast or significant change
Winds: variable direction winds at 5 MPH (4 knots; 2.1 m/s)
Visibility: 6 or more miles (10+ km)
Ceiling: unknown
Clouds: missing
Weather: no significant weather forecast for this period
Text: TEMPO 1809/1814 26006MPS
Forecast period: 0900 to 1400 UTC 18 September 2021
Forecast type: TEMPORARY: The following changes expected for less than half the time period
Winds: from the W (260 degrees) at 14 MPH (12 knots; 6.2 m/s)
Visibility: missing
Ceiling: unknown
Clouds: missing
Weather: no significant weather forecast for this period